sensor_id;sensor_type;location;lat;lon;timestamp;temperature;humidity
52058;DHT22;38063;53.210;6.504;2023-04-07T00:00:06;7.00;99.90
52058;DHT22;38063;53.210;6.504;2023-04-07T00:02:32;7.00;99.90
52058;DHT22;38063;53.210;6.504;2023-04-07T00:04:58;7.50;99.90
52058;DHT22;38063;53.210;6.504;2023-04-07T00:07:24;6.90;99.90
52058;DHT22;38063;53.210;6.504;2023-04-07T00:09:49;6.90;99.90
52058;DHT22;38063;53.210;6.504;2023-04-07T00:12:15;6.90;99.90
52058;DHT22;38063;53.210;6.504;2023-04-07T00:14:41;6.90;99.90
52058;DHT22;38063;53.210;6.504;2023-04-07T00:17:07;6.90;99.90
52058;DHT22;38063;53.210;6.504;2023-04-07T00:19:32;6.90;99.90
52058;DHT22;38063;53.210;6.504;2023-04-07T00:22:01;7.10;99.90
52058;DHT22;38063;53.210;6.504;2023-04-07T00:24:27;7.80;99.90
52058;DHT22;38063;53.210;6.504;2023-04-07T00:26:53;6.90;99.90
52058;DHT22;38063;53.210;6.504;2023-04-07T00:29:18;6.90;99.90
52058;DHT22;38063;53.210;6.504;2023-04-07T00:31:44;6.90;99.90
52058;DHT22;38063;53.210;6.504;2023-04-07T00:34:09;7.00;99.90
52058;DHT22;38063;53.210;6.504;2023-04-07T00:36:35;7.60;99.90
52058;DHT22;38063;53.210;6.504;2023-04-07T00:39:01;6.90;99.90
52058;DHT22;38063;53.210;6.504;2023-04-07T00:41:26;6.90;99.90
52058;DHT22;38063;53.210;6.504;2023-04-07T00:43:52;6.90;99.90
52058;DHT22;38063;53.210;6.504;2023-04-07T00:46:21;6.90;99.90
52058;DHT22;38063;53.210;6.504;2023-04-07T00:48:47;6.90;99.90
52058;DHT22;38063;53.210;6.504;2023-04-07T00:51:13;6.90;99.90
52058;DHT22;38063;53.210;6.504;2023-04-07T00:53:39;6.90;99.90
52058;DHT22;38063;53.210;6.504;2023-04-07T00:56:05;6.90;99.90
52058;DHT22;38063;53.210;6.504;2023-04-07T00:58:30;6.90;99.90
52058;DHT22;38063;53.210;6.504;2023-04-07T01:01:11;6.90;99.90
52058;DHT22;38063;53.210;6.504;2023-04-07T01:03:48;6.90;99.90
52058;DHT22;38063;53.210;6.504;2023-04-07T01:06:18;6.90;99.90
52058;DHT22;38063;53.210;6.504;2023-04-07T01:14:00;6.90;99.90
52058;DHT22;38063;53.210;6.504;2023-04-07T01:16:38;6.90;99.90
52058;DHT22;38063;53.210;6.504;2023-04-07T01:19:24;6.90;99.90
52058;DHT22;38063;53.210;6.504;2023-04-07T01:21:55;6.90;99.90
52058;DHT22;38063;53.210;6.504;2023-04-07T01:29:57;6.90;99.90
52058;DHT22;38063;53.210;6.504;2023-04-07T01:32:26;6.80;99.90
52058;DHT22;38063;53.210;6.504;2023-04-07T01:34:53;6.90;99.90
52058;DHT22;38063;53.210;6.504;2023-04-07T01:37:20;6.90;99.90
52058;DHT22;38063;53.210;6.504;2023-04-07T01:39:46;6.90;99.90
52058;DHT22;38063;53.210;6.504;2023-04-07T01:42:12;6.90;99.90
52058;DHT22;38063;53.210;6.504;2023-04-07T01:44:39;6.90;99.90
52058;DHT22;38063;53.210;6.504;2023-04-07T01:47:05;6.90;99.90
52058;DHT22;38063;53.210;6.504;2023-04-07T01:49:31;6.90;99.90
52058;DHT22;38063;53.210;6.504;2023-04-07T01:51:58;7.60;99.90
52058;DHT22;38063;53.210;6.504;2023-04-07T01:54:25;6.90;99.90
52058;DHT22;38063;53.210;6.504;2023-04-07T01:56:51;6.90;99.90
52058;DHT22;38063;53.210;6.504;2023-04-07T01:59:17;6.90;99.90
52058;DHT22;38063;53.210;6.504;2023-04-07T02:01:43;6.90;99.90
52058;DHT22;38063;53.210;6.504;2023-04-07T02:04:24;7.50;99.90
52058;DHT22;38063;53.210;6.504;2023-04-07T02:06:55;6.90;99.90
52058;DHT22;38063;53.210;6.504;2023-04-07T02:09:24;6.90;99.90
52058;DHT22;38063;53.210;6.504;2023-04-07T02:11:53;6.90;99.90
52058;DHT22;38063;53.210;6.504;2023-04-07T02:14:20;6.90;99.90
52058;DHT22;38063;53.210;6.504;2023-04-07T02:16:49;7.00;99.90
52058;DHT22;38063;53.210;6.504;2023-04-07T02:19:16;6.90;99.90
52058;DHT22;38063;53.210;6.504;2023-04-07T02:21:43;6.90;99.90
52058;DHT22;38063;53.210;6.504;2023-04-07T02:24:11;7.30;99.90
52058;DHT22;38063;53.210;6.504;2023-04-07T02:26:37;6.90;99.90
52058;DHT22;38063;53.210;6.504;2023-04-07T02:29:05;6.90;99.90
52058;DHT22;38063;53.210;6.504;2023-04-07T02:31:31;6.90;99.90
52058;DHT22;38063;53.210;6.504;2023-04-07T02:33:57;6.90;99.90
52058;DHT22;38063;53.210;6.504;2023-04-07T02:36:22;7.10;99.90
52058;DHT22;38063;53.210;6.504;2023-04-07T02:38:48;6.90;99.90
52058;DHT22;38063;53.210;6.504;2023-04-07T02:41:14;6.90;99.90
52058;DHT22;38063;53.210;6.504;2023-04-07T02:43:40;6.90;99.90
52058;DHT22;38063;53.210;6.504;2023-04-07T02:46:05;6.90;99.90
52058;DHT22;38063;53.210;6.504;2023-04-07T02:48:31;6.90;99.90
52058;DHT22;38063;53.210;6.504;2023-04-07T02:50:57;6.90;99.90
52058;DHT22;38063;53.210;6.504;2023-04-07T02:53:23;7.60;99.90
52058;DHT22;38063;53.210;6.504;2023-04-07T02:55:49;6.90;99.90
52058;DHT22;38063;53.210;6.504;2023-04-07T02:58:15;6.90;99.90
52058;DHT22;38063;53.210;6.504;2023-04-07T03:00:40;6.90;99.90
52058;DHT22;38063;53.210;6.504;2023-04-07T03:03:06;6.90;99.90
52058;DHT22;38063;53.210;6.504;2023-04-07T03:05:32;6.90;99.90
52058;DHT22;38063;53.210;6.504;2023-04-07T03:07:57;6.90;99.90
52058;DHT22;38063;53.210;6.504;2023-04-07T03:10:23;6.90;99.90
52058;DHT22;38063;53.210;6.504;2023-04-07T03:12:49;6.90;99.90
52058;DHT22;38063;53.210;6.504;2023-04-07T03:15:14;6.90;99.90
52058;DHT22;38063;53.210;6.504;2023-04-07T03:17:40;6.90;99.90
52058;DHT22;38063;53.210;6.504;2023-04-07T03:20:06;6.90;99.90
52058;DHT22;38063;53.210;6.504;2023-04-07T03:22:32;6.90;99.90
52058;DHT22;38063;53.210;6.504;2023-04-07T03:24:58;6.90;99.90
52058;DHT22;38063;53.210;6.504;2023-04-07T03:27:23;6.90;99.90
52058;DHT22;38063;53.210;6.504;2023-04-07T03:29:49;6.90;99.90
52058;DHT22;38063;53.210;6.504;2023-04-07T03:32:17;6.80;99.90
52058;DHT22;38063;53.210;6.504;2023-04-07T03:34:43;6.80;99.90
52058;DHT22;38063;53.210;6.504;2023-04-07T03:37:09;7.50;99.90
52058;DHT22;38063;53.210;6.504;2023-04-07T03:39:34;6.90;99.90
52058;DHT22;38063;53.210;6.504;2023-04-07T03:42:02;6.80;99.90
52058;DHT22;38063;53.210;6.504;2023-04-07T03:44:28;6.90;99.90
52058;DHT22;38063;53.210;6.504;2023-04-07T03:46:53;6.80;99.90
52058;DHT22;38063;53.210;6.504;2023-04-07T03:49:19;6.90;99.90
52058;DHT22;38063;53.210;6.504;2023-04-07T03:51:45;7.10;99.90
52058;DHT22;38063;53.210;6.504;2023-04-07T03:54:11;6.90;99.90
52058;DHT22;38063;53.210;6.504;2023-04-07T03:56:36;7.50;99.90
52058;DHT22;38063;53.210;6.504;2023-04-07T03:59:02;6.90;99.90
52058;DHT22;38063;53.210;6.504;2023-04-07T04:01:28;6.80;99.90
52058;DHT22;38063;53.210;6.504;2023-04-07T04:03:54;6.80;99.90
52058;DHT22;38063;53.210;6.504;2023-04-07T04:06:19;7.70;99.90
52058;DHT22;38063;53.210;6.504;2023-04-07T04:08:45;6.80;99.90
52058;DHT22;38063;53.210;6.504;2023-04-07T04:11:11;7.60;99.90
52058;DHT22;38063;53.210;6.504;2023-04-07T04:13:36;7.50;99.90
52058;DHT22;38063;53.210;6.504;2023-04-07T04:16:02;6.80;99.90
52058;DHT22;38063;53.210;6.504;2023-04-07T04:18:28;6.80;99.90
52058;DHT22;38063;53.210;6.504;2023-04-07T04:20:54;6.80;99.90
52058;DHT22;38063;53.210;6.504;2023-04-07T04:23:19;6.80;99.90
52058;DHT22;38063;53.210;6.504;2023-04-07T04:25:46;6.80;99.90
52058;DHT22;38063;53.210;6.504;2023-04-07T04:28:11;6.80;99.90
52058;DHT22;38063;53.210;6.504;2023-04-07T04:30:37;6.80;99.90
52058;DHT22;38063;53.210;6.504;2023-04-07T04:33:03;7.70;99.90
52058;DHT22;38063;53.210;6.504;2023-04-07T04:35:28;6.80;99.90
52058;DHT22;38063;53.210;6.504;2023-04-07T04:37:54;6.80;99.90
52058;DHT22;38063;53.210;6.504;2023-04-07T04:40:19;6.80;99.90
52058;DHT22;38063;53.210;6.504;2023-04-07T04:42:45;6.80;99.90
52058;DHT22;38063;53.210;6.504;2023-04-07T04:45:11;6.80;99.90
52058;DHT22;38063;53.210;6.504;2023-04-07T04:47:36;6.80;99.90
52058;DHT22;38063;53.210;6.504;2023-04-07T04:50:05;6.70;99.90
52058;DHT22;38063;53.210;6.504;2023-04-07T04:52:31;6.70;99.90
52058;DHT22;38063;53.210;6.504;2023-04-07T04:54:57;6.80;99.90
52058;DHT22;38063;53.210;6.504;2023-04-07T04:57:22;6.70;99.90
52058;DHT22;38063;53.210;6.504;2023-04-07T04:59:48;7.30;99.90
52058;DHT22;38063;53.210;6.504;2023-04-07T05:02:13;6.70;99.90
52058;DHT22;38063;53.210;6.504;2023-04-07T05:04:39;6.70;99.90
52058;DHT22;38063;53.210;6.504;2023-04-07T05:07:05;6.70;99.90
52058;DHT22;38063;53.210;6.504;2023-04-07T05:09:31;7.10;99.90
52058;DHT22;38063;53.210;6.504;2023-04-07T05:11:56;7.20;99.90
52058;DHT22;38063;53.210;6.504;2023-04-07T05:14:22;6.70;99.90
52058;DHT22;38063;53.210;6.504;2023-04-07T05:16:48;6.70;99.90
52058;DHT22;38063;53.210;6.504;2023-04-07T05:19:14;6.70;99.90
52058;DHT22;38063;53.210;6.504;2023-04-07T05:21:40;7.40;99.90
52058;DHT22;38063;53.210;6.504;2023-04-07T05:24:05;6.70;99.90
52058;DHT22;38063;53.210;6.504;2023-04-07T05:26:31;6.70;99.90
52058;DHT22;38063;53.210;6.504;2023-04-07T05:28:57;6.70;99.90
52058;DHT22;38063;53.210;6.504;2023-04-07T05:31:22;7.10;99.90
52058;DHT22;38063;53.210;6.504;2023-04-07T05:33:48;6.70;99.90
52058;DHT22;38063;53.210;6.504;2023-04-07T05:36:15;6.70;99.90
52058;DHT22;38063;53.210;6.504;2023-04-07T05:38:40;6.70;99.90
52058;DHT22;38063;53.210;6.504;2023-04-07T05:41:06;6.80;99.90
52058;DHT22;38063;53.210;6.504;2023-04-07T05:43:32;6.80;99.90
52058;DHT22;38063;53.210;6.504;2023-04-07T05:45:57;6.80;99.90
52058;DHT22;38063;53.210;6.504;2023-04-07T05:48:23;6.70;99.90
52058;DHT22;38063;53.210;6.504;2023-04-07T05:50:49;6.70;99.90
52058;DHT22;38063;53.210;6.504;2023-04-07T05:53:14;6.70;99.90
52058;DHT22;38063;53.210;6.504;2023-04-07T05:55:43;6.70;99.90
52058;DHT22;38063;53.210;6.504;2023-04-07T05:58:09;7.00;99.90
52058;DHT22;38063;53.210;6.504;2023-04-07T06:00:35;6.80;99.90
52058;DHT22;38063;53.210;6.504;2023-04-07T06:03:01;6.70;99.90
52058;DHT22;38063;53.210;6.504;2023-04-07T06:05:27;6.80;99.90
52058;DHT22;38063;53.210;6.504;2023-04-07T06:07:53;6.80;99.90
52058;DHT22;38063;53.210;6.504;2023-04-07T06:10:19;7.10;99.90
52058;DHT22;38063;53.210;6.504;2023-04-07T06:12:45;6.80;99.90
52058;DHT22;38063;53.210;6.504;2023-04-07T06:15:10;6.80;99.90
52058;DHT22;38063;53.210;6.504;2023-04-07T06:17:36;6.80;99.90
52058;DHT22;38063;53.210;6.504;2023-04-07T06:20:02;6.80;99.90
52058;DHT22;38063;53.210;6.504;2023-04-07T06:22:28;6.90;99.90
52058;DHT22;38063;53.210;6.504;2023-04-07T06:24:54;6.90;99.90
52058;DHT22;38063;53.210;6.504;2023-04-07T06:27:20;6.90;99.90
52058;DHT22;38063;53.210;6.504;2023-04-07T06:29:46;7.00;99.90
52058;DHT22;38063;53.210;6.504;2023-04-07T06:32:12;6.90;99.90
52058;DHT22;38063;53.210;6.504;2023-04-07T06:34:38;7.80;99.90
52058;DHT22;38063;53.210;6.504;2023-04-07T06:37:03;6.90;99.90
52058;DHT22;38063;53.210;6.504;2023-04-07T06:39:31;6.90;99.90
52058;DHT22;38063;53.210;6.504;2023-04-07T06:41:56;7.00;99.90
52058;DHT22;38063;53.210;6.504;2023-04-07T06:44:22;7.00;99.90
52058;DHT22;38063;53.210;6.504;2023-04-07T06:46:48;7.00;99.90
52058;DHT22;38063;53.210;6.504;2023-04-07T06:49:18;8.10;99.90
52058;DHT22;38063;53.210;6.504;2023-04-07T06:51:43;7.20;99.90
52058;DHT22;38063;53.210;6.504;2023-04-07T06:54:09;7.10;99.90
52058;DHT22;38063;53.210;6.504;2023-04-07T06:56:40;7.10;99.90
52058;DHT22;38063;53.210;6.504;2023-04-07T06:59:05;7.20;99.90
52058;DHT22;38063;53.210;6.504;2023-04-07T07:01:32;7.20;99.90
52058;DHT22;38063;53.210;6.504;2023-04-07T07:03:57;7.20;99.90
52058;DHT22;38063;53.210;6.504;2023-04-07T07:06:25;7.20;99.90
52058;DHT22;38063;53.210;6.504;2023-04-07T07:08:52;7.30;99.90
52058;DHT22;38063;53.210;6.504;2023-04-07T07:11:18;7.30;99.90
52058;DHT22;38063;53.210;6.504;2023-04-07T07:13:43;7.30;99.90
52058;DHT22;38063;53.210;6.504;2023-04-07T07:16:10;8.20;99.90
52058;DHT22;38063;53.210;6.504;2023-04-07T07:18:37;7.40;99.90
52058;DHT22;38063;53.210;6.504;2023-04-07T07:21:03;7.40;99.90
52058;DHT22;38063;53.210;6.504;2023-04-07T07:23:29;7.40;99.90
52058;DHT22;38063;53.210;6.504;2023-04-07T07:25:54;7.50;99.90
52058;DHT22;38063;53.210;6.504;2023-04-07T07:28:20;7.80;99.90
52058;DHT22;38063;53.210;6.504;2023-04-07T07:30:46;7.60;99.90
52058;DHT22;38063;53.210;6.504;2023-04-07T07:33:12;7.60;99.90
52058;DHT22;38063;53.210;6.504;2023-04-07T07:35:38;7.70;99.90
52058;DHT22;38063;53.210;6.504;2023-04-07T07:38:04;7.70;99.90
52058;DHT22;38063;53.210;6.504;2023-04-07T07:40:30;7.70;99.90
52058;DHT22;38063;53.210;6.504;2023-04-07T07:42:56;7.80;99.90
52058;DHT22;38063;53.210;6.504;2023-04-07T07:45:22;7.80;99.90
52058;DHT22;38063;53.210;6.504;2023-04-07T07:47:48;7.80;99.90
52058;DHT22;38063;53.210;6.504;2023-04-07T07:50:13;7.90;99.90
52058;DHT22;38063;53.210;6.504;2023-04-07T07:52:39;7.90;99.90
52058;DHT22;38063;53.210;6.504;2023-04-07T07:55:05;8.00;99.90
52058;DHT22;38063;53.210;6.504;2023-04-07T07:57:30;8.10;99.90
52058;DHT22;38063;53.210;6.504;2023-04-07T07:59:56;8.20;99.90
52058;DHT22;38063;53.210;6.504;2023-04-07T08:02:22;8.20;99.90
52058;DHT22;38063;53.210;6.504;2023-04-07T08:04:53;8.30;99.90
52058;DHT22;38063;53.210;6.504;2023-04-07T08:07:19;8.30;99.90
52058;DHT22;38063;53.210;6.504;2023-04-07T08:09:46;8.30;99.90
52058;DHT22;38063;53.210;6.504;2023-04-07T08:12:11;8.30;99.90
52058;DHT22;38063;53.210;6.504;2023-04-07T08:14:37;8.30;99.90
52058;DHT22;38063;53.210;6.504;2023-04-07T08:17:03;8.30;99.90
52058;DHT22;38063;53.210;6.504;2023-04-07T08:19:28;8.70;99.90
52058;DHT22;38063;53.210;6.504;2023-04-07T08:21:54;8.40;99.90
52058;DHT22;38063;53.210;6.504;2023-04-07T08:24:20;9.50;99.90
52058;DHT22;38063;53.210;6.504;2023-04-07T08:26:45;8.30;99.90
52058;DHT22;38063;53.210;6.504;2023-04-07T08:29:11;8.40;99.90
52058;DHT22;38063;53.210;6.504;2023-04-07T08:31:37;8.40;99.90
52058;DHT22;38063;53.210;6.504;2023-04-07T08:34:02;8.40;99.90
52058;DHT22;38063;53.210;6.504;2023-04-07T08:36:28;8.40;99.90
52058;DHT22;38063;53.210;6.504;2023-04-07T08:38:54;8.40;99.90
52058;DHT22;38063;53.210;6.504;2023-04-07T08:41:26;8.40;99.90
52058;DHT22;38063;53.210;6.504;2023-04-07T08:43:55;8.80;99.90
52058;DHT22;38063;53.210;6.504;2023-04-07T08:46:24;8.40;99.90
52058;DHT22;38063;53.210;6.504;2023-04-07T08:48:51;8.40;99.90
52058;DHT22;38063;53.210;6.504;2023-04-07T08:51:30;8.50;99.90
52058;DHT22;38063;53.210;6.504;2023-04-07T08:54:10;8.90;99.90
52058;DHT22;38063;53.210;6.504;2023-04-07T08:56:40;8.60;99.90
52058;DHT22;38063;53.210;6.504;2023-04-07T08:59:07;8.70;99.90
52058;DHT22;38063;53.210;6.504;2023-04-07T09:01:34;8.70;99.90
52058;DHT22;38063;53.210;6.504;2023-04-07T09:04:01;8.90;99.90
52058;DHT22;38063;53.210;6.504;2023-04-07T09:06:29;9.00;99.90
52058;DHT22;38063;53.210;6.504;2023-04-07T09:08:57;9.10;99.90
52058;DHT22;38063;53.210;6.504;2023-04-07T09:11:22;9.20;99.90
52058;DHT22;38063;53.210;6.504;2023-04-07T09:13:49;9.40;99.90
52058;DHT22;38063;53.210;6.504;2023-04-07T09:16:15;9.30;99.90
52058;DHT22;38063;53.210;6.504;2023-04-07T09:18:41;9.40;99.90
52058;DHT22;38063;53.210;6.504;2023-04-07T09:21:08;9.40;99.90
52058;DHT22;38063;53.210;6.504;2023-04-07T09:23:36;9.60;99.90
52058;DHT22;38063;53.210;6.504;2023-04-07T09:28:46;9.70;99.90
52058;DHT22;38063;53.210;6.504;2023-04-07T09:31:12;9.80;99.90
52058;DHT22;38063;53.210;6.504;2023-04-07T09:33:38;9.80;99.90
52058;DHT22;38063;53.210;6.504;2023-04-07T09:36:04;9.90;99.90
52058;DHT22;38063;53.210;6.504;2023-04-07T09:38:38;9.90;99.90
52058;DHT22;38063;53.210;6.504;2023-04-07T09:41:12;10.00;99.90
52058;DHT22;38063;53.210;6.504;2023-04-07T09:43:40;10.00;99.90
52058;DHT22;38063;53.210;6.504;2023-04-07T09:46:24;10.00;99.90
52058;DHT22;38063;53.210;6.504;2023-04-07T09:49:01;10.10;99.90
52058;DHT22;38063;53.210;6.504;2023-04-07T09:51:29;10.20;99.90
52058;DHT22;38063;53.210;6.504;2023-04-07T09:53:55;10.40;99.90
52058;DHT22;38063;53.210;6.504;2023-04-07T09:56:21;10.20;99.90
52058;DHT22;38063;53.210;6.504;2023-04-07T09:58:48;10.30;99.90
52058;DHT22;38063;53.210;6.504;2023-04-07T10:01:16;10.30;99.90
52058;DHT22;38063;53.210;6.504;2023-04-07T10:03:44;10.30;99.90
52058;DHT22;38063;53.210;6.504;2023-04-07T10:06:11;10.30;99.90
52058;DHT22;38063;53.210;6.504;2023-04-07T10:08:39;10.30;99.90
52058;DHT22;38063;53.210;6.504;2023-04-07T10:11:06;10.40;99.90
52058;DHT22;38063;53.210;6.504;2023-04-07T10:13:34;10.40;99.90
52058;DHT22;38063;53.210;6.504;2023-04-07T10:16:03;10.50;99.90
52058;DHT22;38063;53.210;6.504;2023-04-07T10:18:33;10.50;99.90
52058;DHT22;38063;53.210;6.504;2023-04-07T10:21:04;10.40;99.90
52058;DHT22;38063;53.210;6.504;2023-04-07T10:23:57;10.40;99.90
52058;DHT22;38063;53.210;6.504;2023-04-07T10:26:27;10.40;99.90
52058;DHT22;38063;53.210;6.504;2023-04-07T10:29:01;10.40;99.90
52058;DHT22;38063;53.210;6.504;2023-04-07T10:31:29;10.40;99.90
52058;DHT22;38063;53.210;6.504;2023-04-07T10:33:55;10.40;99.90
52058;DHT22;38063;53.210;6.504;2023-04-07T10:36:22;10.40;99.90
52058;DHT22;38063;53.210;6.504;2023-04-07T10:43:59;10.80;99.90
52058;DHT22;38063;53.210;6.504;2023-04-07T10:46:25;10.80;99.90
52058;DHT22;38063;53.210;6.504;2023-04-07T10:49:08;10.80;99.90
52058;DHT22;38063;53.210;6.504;2023-04-07T10:51:34;10.80;99.90
52058;DHT22;38063;53.210;6.504;2023-04-07T10:57:17;10.80;99.90
52058;DHT22;38063;53.210;6.504;2023-04-07T11:02:39;11.00;99.90
52058;DHT22;38063;53.210;6.504;2023-04-07T11:05:05;11.20;99.90
52058;DHT22;38063;53.210;6.504;2023-04-07T11:07:46;11.30;99.90
52058;DHT22;38063;53.210;6.504;2023-04-07T11:10:13;11.50;99.90
52058;DHT22;38063;53.210;6.504;2023-04-07T11:12:41;11.60;99.90
52058;DHT22;38063;53.210;6.504;2023-04-07T11:15:20;11.80;99.90
52058;DHT22;38063;53.210;6.504;2023-04-07T11:18:08;11.80;99.90
52058;DHT22;38063;53.210;6.504;2023-04-07T11:20:52;11.90;99.90
52058;DHT22;38063;53.210;6.504;2023-04-07T11:23:19;11.90;99.90
52058;DHT22;38063;53.210;6.504;2023-04-07T11:25:47;11.80;99.90
52058;DHT22;38063;53.210;6.504;2023-04-07T11:28:13;11.70;99.90
52058;DHT22;38063;53.210;6.504;2023-04-07T11:30:51;11.70;99.90
52058;DHT22;38063;53.210;6.504;2023-04-07T11:33:21;11.80;99.90
52058;DHT22;38063;53.210;6.504;2023-04-07T11:35:56;11.80;99.90
52058;DHT22;38063;53.210;6.504;2023-04-07T11:38:24;11.90;99.90
52058;DHT22;38063;53.210;6.504;2023-04-07T11:40:52;12.10;99.90
52058;DHT22;38063;53.210;6.504;2023-04-07T11:43:25;12.20;99.90
52058;DHT22;38063;53.210;6.504;2023-04-07T11:46:07;12.20;99.90
52058;DHT22;38063;53.210;6.504;2023-04-07T11:48:34;12.30;99.90
52058;DHT22;38063;53.210;6.504;2023-04-07T11:51:01;12.40;99.90
52058;DHT22;38063;53.210;6.504;2023-04-07T11:53:28;12.40;99.90
52058;DHT22;38063;53.210;6.504;2023-04-07T11:56:12;12.30;99.90
52058;DHT22;38063;53.210;6.504;2023-04-07T11:58:51;12.40;99.90
52058;DHT22;38063;53.210;6.504;2023-04-07T12:01:18;12.40;99.90
52058;DHT22;38063;53.210;6.504;2023-04-07T12:06:31;12.30;99.90
52058;DHT22;38063;53.210;6.504;2023-04-07T12:09:06;12.30;99.90
52058;DHT22;38063;53.210;6.504;2023-04-07T12:11:32;12.40;99.90
52058;DHT22;38063;53.210;6.504;2023-04-07T12:13:59;12.40;99.90
52058;DHT22;38063;53.210;6.504;2023-04-07T12:16:25;12.70;99.90
52058;DHT22;38063;53.210;6.504;2023-04-07T12:18:51;12.90;99.90
52058;DHT22;38063;53.210;6.504;2023-04-07T12:21:17;13.00;99.90
52058;DHT22;38063;53.210;6.504;2023-04-07T12:23:44;13.30;99.90
52058;DHT22;38063;53.210;6.504;2023-04-07T12:26:10;13.00;99.90
52058;DHT22;38063;53.210;6.504;2023-04-07T12:28:37;13.10;99.90
52058;DHT22;38063;53.210;6.504;2023-04-07T12:31:02;13.20;99.90
52058;DHT22;38063;53.210;6.504;2023-04-07T12:33:28;13.40;99.90
52058;DHT22;38063;53.210;6.504;2023-04-07T12:35:55;13.70;99.90
52058;DHT22;38063;53.210;6.504;2023-04-07T12:38:21;13.90;99.90
52058;DHT22;38063;53.210;6.504;2023-04-07T12:40:47;14.00;99.90
52058;DHT22;38063;53.210;6.504;2023-04-07T12:43:12;14.10;99.90
52058;DHT22;38063;53.210;6.504;2023-04-07T12:45:38;14.10;99.90
52058;DHT22;38063;53.210;6.504;2023-04-07T12:48:04;14.10;99.90
52058;DHT22;38063;53.210;6.504;2023-04-07T12:50:30;14.10;99.90
52058;DHT22;38063;53.210;6.504;2023-04-07T12:52:56;14.00;99.90
52058;DHT22;38063;53.210;6.504;2023-04-07T12:55:24;14.00;99.90
52058;DHT22;38063;53.210;6.504;2023-04-07T12:57:50;14.00;99.90
52058;DHT22;38063;53.210;6.504;2023-04-07T13:00:15;13.90;99.90
52058;DHT22;38063;53.210;6.504;2023-04-07T13:02:42;14.00;99.90
52058;DHT22;38063;53.210;6.504;2023-04-07T13:05:08;14.20;99.90
52058;DHT22;38063;53.210;6.504;2023-04-07T13:07:34;14.30;99.90
52058;DHT22;38063;53.210;6.504;2023-04-07T13:10:01;14.50;99.90
52058;DHT22;38063;53.210;6.504;2023-04-07T13:12:27;14.60;99.90
52058;DHT22;38063;53.210;6.504;2023-04-07T13:14:53;14.90;99.90
52058;DHT22;38063;53.210;6.504;2023-04-07T13:17:18;15.00;99.90
52058;DHT22;38063;53.210;6.504;2023-04-07T13:19:44;15.00;99.90
52058;DHT22;38063;53.210;6.504;2023-04-07T13:22:12;15.00;99.90
52058;DHT22;38063;53.210;6.504;2023-04-07T13:24:38;14.90;99.90
52058;DHT22;38063;53.210;6.504;2023-04-07T13:27:04;14.90;99.90
52058;DHT22;38063;53.210;6.504;2023-04-07T13:29:30;14.80;99.90
52058;DHT22;38063;53.210;6.504;2023-04-07T13:32:09;14.80;99.90
52058;DHT22;38063;53.210;6.504;2023-04-07T13:34:38;14.80;99.90
52058;DHT22;38063;53.210;6.504;2023-04-07T13:37:04;14.60;99.90
52058;DHT22;38063;53.210;6.504;2023-04-07T13:39:31;14.60;99.90
52058;DHT22;38063;53.210;6.504;2023-04-07T13:41:57;14.50;99.90
52058;DHT22;38063;53.210;6.504;2023-04-07T13:44:26;14.40;99.90
52058;DHT22;38063;53.210;6.504;2023-04-07T13:46:53;14.40;99.90
52058;DHT22;38063;53.210;6.504;2023-04-07T13:49:19;14.30;99.90
52058;DHT22;38063;53.210;6.504;2023-04-07T13:51:46;14.20;99.90
52058;DHT22;38063;53.210;6.504;2023-04-07T13:54:11;14.20;99.90
52058;DHT22;38063;53.210;6.504;2023-04-07T13:56:37;14.20;99.90
52058;DHT22;38063;53.210;6.504;2023-04-07T13:59:04;14.20;99.90
52058;DHT22;38063;53.210;6.504;2023-04-07T14:01:30;14.20;99.90
52058;DHT22;38063;53.210;6.504;2023-04-07T14:03:57;14.20;99.90
52058;DHT22;38063;53.210;6.504;2023-04-07T14:06:23;14.10;99.90
52058;DHT22;38063;53.210;6.504;2023-04-07T14:08:49;14.20;99.90
52058;DHT22;38063;53.210;6.504;2023-04-07T14:11:16;14.10;99.90
52058;DHT22;38063;53.210;6.504;2023-04-07T14:13:43;14.10;99.90
52058;DHT22;38063;53.210;6.504;2023-04-07T14:16:08;14.00;99.90
52058;DHT22;38063;53.210;6.504;2023-04-07T14:18:34;14.10;99.90
52058;DHT22;38063;53.210;6.504;2023-04-07T14:21:00;14.10;99.90
52058;DHT22;38063;53.210;6.504;2023-04-07T14:23:28;14.10;99.90
52058;DHT22;38063;53.210;6.504;2023-04-07T14:25:53;14.10;99.90
52058;DHT22;38063;53.210;6.504;2023-04-07T14:28:19;14.10;99.90
52058;DHT22;38063;53.210;6.504;2023-04-07T14:30:45;14.10;99.90
52058;DHT22;38063;53.210;6.504;2023-04-07T14:33:12;14.00;99.90
52058;DHT22;38063;53.210;6.504;2023-04-07T14:35:38;13.90;99.90
52058;DHT22;38063;53.210;6.504;2023-04-07T14:38:03;13.80;99.90
52058;DHT22;38063;53.210;6.504;2023-04-07T14:40:29;13.70;99.90
52058;DHT22;38063;53.210;6.504;2023-04-07T14:42:55;13.60;99.90
52058;DHT22;38063;53.210;6.504;2023-04-07T14:45:23;13.60;99.90
52058;DHT22;38063;53.210;6.504;2023-04-07T14:47:49;13.60;99.90
52058;DHT22;38063;53.210;6.504;2023-04-07T14:50:15;13.50;99.90
52058;DHT22;38063;53.210;6.504;2023-04-07T14:52:41;13.60;99.90
52058;DHT22;38063;53.210;6.504;2023-04-07T14:55:07;13.70;99.90
52058;DHT22;38063;53.210;6.504;2023-04-07T14:57:33;13.80;99.90
52058;DHT22;38063;53.210;6.504;2023-04-07T14:59:59;14.00;99.90
52058;DHT22;38063;53.210;6.504;2023-04-07T15:02:24;14.10;99.90
52058;DHT22;38063;53.210;6.504;2023-04-07T15:04:50;14.20;99.90
52058;DHT22;38063;53.210;6.504;2023-04-07T15:07:16;14.20;99.90
52058;DHT22;38063;53.210;6.504;2023-04-07T15:09:41;14.20;99.90
52058;DHT22;38063;53.210;6.504;2023-04-07T15:12:07;14.20;99.90
52058;DHT22;38063;53.210;6.504;2023-04-07T15:14:32;14.20;99.90
52058;DHT22;38063;53.210;6.504;2023-04-07T15:16:58;14.10;99.90
52058;DHT22;38063;53.210;6.504;2023-04-07T15:19:24;14.00;99.90
52058;DHT22;38063;53.210;6.504;2023-04-07T15:21:49;14.00;99.90
52058;DHT22;38063;53.210;6.504;2023-04-07T15:24:15;14.00;99.90
52058;DHT22;38063;53.210;6.504;2023-04-07T15:26:40;14.00;99.90
52058;DHT22;38063;53.210;6.504;2023-04-07T15:29:06;14.00;99.90
52058;DHT22;38063;53.210;6.504;2023-04-07T15:31:32;13.90;99.90
52058;DHT22;38063;53.210;6.504;2023-04-07T15:33:57;14.00;99.90
52058;DHT22;38063;53.210;6.504;2023-04-07T15:36:23;14.00;99.90
52058;DHT22;38063;53.210;6.504;2023-04-07T15:38:49;14.00;99.90
52058;DHT22;38063;53.210;6.504;2023-04-07T15:41:15;14.00;99.90
52058;DHT22;38063;53.210;6.504;2023-04-07T15:43:41;14.00;99.90
52058;DHT22;38063;53.210;6.504;2023-04-07T15:46:07;13.90;99.90
52058;DHT22;38063;53.210;6.504;2023-04-07T15:48:32;13.90;99.90
52058;DHT22;38063;53.210;6.504;2023-04-07T15:51:00;13.90;99.90
52058;DHT22;38063;53.210;6.504;2023-04-07T15:53:26;13.80;99.90
52058;DHT22;38063;53.210;6.504;2023-04-07T15:55:52;13.80;99.90
52058;DHT22;38063;53.210;6.504;2023-04-07T15:58:17;13.70;99.90
52058;DHT22;38063;53.210;6.504;2023-04-07T16:00:43;13.70;99.90
52058;DHT22;38063;53.210;6.504;2023-04-07T16:03:08;13.80;99.90
52058;DHT22;38063;53.210;6.504;2023-04-07T16:05:35;13.80;99.90